首页
METAR-TAF:

METAR-TAF

机场 :

岩國飛行場

岩國, 日本

纬度: 34-08N, 经度: 132-14E, 海拔: 2米

当前天气观测

该预报发布于19分钟前的13:55 UTC
风速4节,风向西转西北
温度 27°C
湿度 74%
气压 1007 hPa
能见度10公里或以上
散云层高于3000英尺
多云层高于4500英尺
多云层高于12000英尺

METAR: RJOI 201355Z 29004KT 9999 SCT030 BKN045 BKN120 27/22 A2974 RMK SLP070 LAST T02670217

时间: 23:14 (14:14 UTC)

预报

预报有效从20日的 09点(UTC)到 21日的 09点(UTC)
风速5节,风向多变
能见度10公里或以上
散云层高于2500英尺
多云层高于3000英尺
多云层高于4500英尺
多云层高于12000英尺
阴天层高于30000英尺
成为
从 20日的 12点(UTC)到 20日的 14点(UTC)
风速5节,风向多变
能见度10公里或以上
散云层高于2500英尺
散云层高于4500英尺
多云层高于12000英尺
多云层高于30000英尺
成为
从 20日的 18点(UTC)到 20日的 20点(UTC)
风速6节,风向多变
能见度10公里或以上
散云层高于2500英尺
多云层高于4500英尺
多云层高于12000英尺
多云层高于30000英尺
从 21日的 0200点(UTC)
风速10节,风向东南
能见度10公里或以上
散云层高于2500英尺
散云层高于6000英尺
多云层高于18000英尺
多云层高于30000英尺
成为
从 21日的 04点(UTC)到 21日的 06点(UTC)
风速12节,风向南转南东,有时为18节阵风
能見度: 0919
散云层高于2500英尺
散云层高于6000英尺
多云层高于18000英尺

TAF: RJOI 2009/2109 VRB05KT 9999 SCT025 BKN030 BKN045 BKN120 OVC300 QNH2973INS BECMG 2012/2014 VRB05KT 9999 SCT025 SCT045 BKN120 BKN300 QNH2970INS BECMG 2018/2020 VRB06KT 9999 SCT025 BKN045 BKN120 BKN300 QNH2970INS FM210200 13010KT 9999 SCT025 SCT060 BKN180 BKN300 641804 QNH2969INS BECMG 2104/2106 15012G18KT 9999 SCT025 SCT060 BKN180 641804 540005 QNH2966INS T26/2020Z T32/2107Z COR 0919

超过4000个机场的气象观测和天气预报(METAR&TAF报告)。

可查询的气象台以黄色和红色小点在地图上表示。

将鼠标移到小点上方,可查看气象台名称。

然后点击查看天气观测和预报。

如需切换地图:点击带黑十字的绿色按钮放大地图;点击带横线的绿色按钮缩小地图;或者点击绿色箭头查看邻近地区的地图。


METAR-TAF: